Corvo — CSBH — position and weather

sailwx.info

Track history (hours):
 
Tides and Currents Weather Stations Pressure Air Temp Water Temp Dewpoint Dewpoint Depression Visibility Wind Speed Wind Dir Waves Ship Positions

Corvo

Last reported at 2017-Nov-20 00:29 UTC. Time now 2017-Nov-22 03:31 UTC.
Position N 38°43' W 009°07'.

Length 119 m; draft 5.7 m.

Type: Cargo ship. MMSI: 204709000.

Date/timePositionNaut miles runAvg speedWind from/ knotsBaromVisibWave heightAir tempDewpointWater temp
2017-Nov-20 00:29N 38°43' W 009°07'0 0.2
2017-Nov-20 00:00N 38°43' W 009°06'5 9.9
2017-Nov-19 23:27N 38°41' W 009°13'511.0
2017-Nov-19 23:00N 38°40' W 009°19'815.7
2017-Nov-19 22:31N 38°35' W 009°27'816.4
2017-Nov-19 22:01N 38°34' W 009°38'816.6
2017-Nov-19 21:30N 38°34' W 009°48'816.5
2017-Nov-19 21:01N 38°34' W 009°59'816.7
2017-Nov-19 20:31N 38°33' W 010°09'816.6
2017-Nov-19 20:01N 38°32' W 010°20'816.8
2017-Nov-19 19:31N 38°32' W 010°31'816.7
2017-Nov-19 19:01N 38°31' W 010°41'816.0
2017-Nov-19 18:30N 38°31' W 010°52'815.3
2017-Nov-19 18:01N 38°31' W 011°01'4215.8
2017-Nov-19 15:21N 38°27' W 011°55'615.9
2017-Nov-19 14:59N 38°26' W 012°02'54715.9
2017-Nov-18 04:34N 37°47' W 023°36'115.4
2017-Nov-18 04:30N 37°47' W 023°37'816.1
2017-Nov-18 04:00N 37°46' W 023°47'816.5
2017-Nov-18 03:31N 37°46' W 023°58'816.2
2017-Nov-18 03:00N 37°45' W 024°08'816.0
2017-Nov-18 02:30N 37°45' W 024°18'816.1
2017-Nov-18 02:01N 37°44' W 024°28'816.3
2017-Nov-18 01:31N 37°44' W 024°38'816.3
2017-Nov-18 01:00N 37°44' W 024°49'816.0
2017-Nov-18 00:30N 37°43' W 024°59'816.3
2017-Nov-18 00:00N 37°42' W 025°09'816.6
2017-Nov-17 23:30N 37°41' W 025°20'816.3
2017-Nov-17 23:01N 37°41' W 025°30'816.1
2017-Nov-17 22:31N 37°44' W 025°39'1 1.1
2017-Nov-17 22:00N 37°44' W 025°40'0 0.0
2017-Nov-17 21:30N 37°44' W 025°40'0 0.0
2017-Nov-17 21:00N 37°44' W 025°40'0 0.0
2017-Nov-17 20:31N 37°44' W 025°40'0 0.0
2017-Nov-17 19:58N 37°44' W 025°40'0 0.0
2017-Nov-17 19:28N 37°44' W 025°40'0 0.0
2017-Nov-17 18:59N 37°44' W 025°40'0 0.0
2017-Nov-17 18:29N 37°44' W 025°40'0 0.0
2017-Nov-17 17:59N 37°44' W 025°40'0 0.0
2017-Nov-17 17:30N 37°44' W 025°40'0 0.0
2017-Nov-17 17:00N 37°44' W 025°40'0 0.0
2017-Nov-17 16:30N 37°44' W 025°40'0 0.0
2017-Nov-17 16:01N 37°44' W 025°40'0 0.0
2017-Nov-17 15:28N 37°44' W 025°40'0 0.0
2017-Nov-17 14:58N 37°44' W 025°40'0 0.0
2017-Nov-17 14:29N 37°44' W 025°40'0 0.0
2017-Nov-17 13:59N 37°44' W 025°40'0 0.0
2017-Nov-17 13:29N 37°44' W 025°40'0 0.0
2017-Nov-17 13:00N 37°44' W 025°40'0 0.0
2017-Nov-17 12:30N 37°44' W 025°40'0 0.0
2017-Nov-17 12:00N 37°44' W 025°40'0 0.0
2017-Nov-17 11:28N 37°44' W 025°40'0 0.0
2017-Nov-17 10:58N 37°44' W 025°40'0 0.0
2017-Nov-17 10:28N 37°44' W 025°40'0 0.9
2017-Nov-17 10:00N 37°44' W 025°39'3 6.6
2017-Nov-17 09:30N 37°42' W 025°43'816.0
2017-Nov-17 09:00N 37°46' W 025°52'816.0
2017-Nov-17 08:30N 37°50' W 026°01'815.8
2017-Nov-17 08:00N 37°53' W 026°10'816.3
2017-Nov-17 07:30N 37°56' W 026°19'816.3
2017-Nov-17 07:00N 37°59' W 026°29'816.1
2017-Nov-17 06:30N 38°03' W 026°38'815.8
2017-Nov-17 06:00N 38°06' W 026°47'816.0
2017-Nov-17 05:30N 38°10' W 026°56'816.1
2017-Nov-17 05:00N 38°13' W 027°05'816.5
2017-Nov-17 04:30N 38°17' W 027°15'816.4
2017-Nov-17 04:00N 38°20' W 027°24'816.6
2017-Nov-17 03:30N 38°24' W 027°34'817.0
2017-Nov-17 03:00N 38°27' W 027°44'816.9
2017-Nov-17 02:30N 38°31' W 027°54'917.1
2017-Nov-17 02:00N 38°35' W 028°03'816.3
2017-Nov-17 01:30N 38°39' W 028°12'1 2.5
2017-Nov-17 00:58N 38°41' W 028°12'0 0.0
2017-Nov-17 00:28N 38°41' W 028°12'0 0.0
2017-Nov-16 23:59N 38°41' W 028°12'0 0.0
2017-Nov-16 23:29N 38°41' W 028°12'0 0.0
2017-Nov-16 22:59N 38°41' W 028°12'0 0.0
2017-Nov-16 22:30N 38°41' W 028°12'0 0.0
2017-Nov-16 22:00N 38°41' W 028°12'0 0.0
2017-Nov-16 21:30N 38°41' W 028°12'0 0.0
2017-Nov-16 20:58N 38°41' W 028°12'0 0.0
2017-Nov-16 20:28N 38°41' W 028°12'0 0.0
2017-Nov-16 19:56N 38°41' W 028°12'0 0.0
2017-Nov-16 19:29N 38°41' W 028°12'0 0.0
2017-Nov-16 18:59N 38°41' W 028°12'0 0.0
2017-Nov-16 18:29N 38°41' W 028°12'0 0.0
2017-Nov-16 18:00N 38°41' W 028°12'0 0.0
2017-Nov-16 17:30N 38°41' W 028°12'0 0.0
2017-Nov-16 16:58N 38°41' W 028°12'0 0.0
2017-Nov-16 16:25N 38°41' W 028°12'0 0.0
2017-Nov-16 15:58N 38°41' W 028°12'0 0.0
2017-Nov-16 15:28N 38°41' W 028°12'0 0.0
2017-Nov-16 14:59N 38°41' W 028°12'0 0.0
2017-Nov-16 14:29N 38°41' W 028°12'0 0.0
2017-Nov-16 13:59N 38°41' W 028°12'0 0.0
2017-Nov-16 13:30N 38°41' W 028°12'0 0.0
2017-Nov-16 13:00N 38°41' W 028°12'1 2.3
2017-Nov-16 12:30N 38°40' W 028°12'510.6
2017-Nov-16 12:00N 38°36' W 028°07'815.7
2017-Nov-16 11:31N 38°33' W 027°58'815.5
2017-Nov-16 11:00N 38°30' W 027°49'816.0
2017-Nov-16 10:30N 38°31' W 027°39'816.3
2017-Nov-16 10:00N 38°32' W 027°28'816.5
2017-Nov-16 09:30N 38°33' W 027°18'816.5
2017-Nov-16 09:00N 38°35' W 027°07'914.8
2017-Nov-16 08:25N 38°42' W 027°01'2 0.1
2017-Nov-15 16:54N 38°43' W 027°03'0 0.0
2017-Nov-15 16:30N 38°43' W 027°03'0 0.0
2017-Nov-15 15:01N 38°43' W 027°03'0 0.0
2017-Nov-15 14:53N 38°43' W 027°03'0 0.0
2017-Nov-15 14:26N 38°43' W 027°03'0 0.0
2017-Nov-15 11:46N 38°43' W 027°03'0 0.0
2017-Nov-15 10:29N 38°43' W 027°03'0 0.0
2017-Nov-15 09:38N 38°43' W 027°03'0 0.0
2017-Nov-14 18:57N 38°43' W 027°03'0 0.0
2017-Nov-14 18:30N 38°43' W 027°03'0 0.0
2017-Nov-14 17:58N 38°43' W 027°03'0 0.0
2017-Nov-14 17:28N 38°43' W 027°03'0 0.0
2017-Nov-14 16:58N 38°43' W 027°03'0 0.0
2017-Nov-14 16:29N 38°43' W 027°03'0 0.0
2017-Nov-14 15:59N 38°43' W 027°03'0 0.0
2017-Nov-14 15:29N 38°43' W 027°03'0 0.0
2017-Nov-14 15:00N 38°43' W 027°03'0 0.0
2017-Nov-14 14:30N 38°43' W 027°03'0 0.0
2017-Nov-14 08:31N 38°43' W 027°03'0 0.1
2017-Nov-14 08:28N 38°43' W 027°03'1 2.5
2017-Nov-14 07:59N 38°44' W 027°02'510.2
2017-Nov-14 07:30N 38°40' W 026°58'816.3
2017-Nov-14 07:00N 38°34' W 026°50'816.2
2017-Nov-14 06:31N 38°29' W 026°43'815.4
2017-Nov-14 06:00N 38°23' W 026°36'4 7.3
2017-Nov-14 05:30N 38°20' W 026°33'4 7.4
2017-Nov-14 05:00N 38°23' W 026°37'714.6
2017-Nov-14 04:30N 38°18' W 026°30'715.0
2017-Nov-14 04:00N 38°12' W 026°24'815.1
2017-Nov-14 03:31N 38°07' W 026°17'815.3
2017-Nov-14 03:00N 38°02' W 026°10'815.2
2017-Nov-14 02:30N 37°56' W 026°03'815.1
2017-Nov-14 02:00N 37°51' W 025°56'815.3
2017-Nov-14 01:30N 37°46' W 025°49'714.8
2017-Nov-14 01:00N 37°42' W 025°41'3 4.9
2017-Nov-14 00:28N 37°44' W 025°40'0 0.0
2017-Nov-13 23:59N 37°44' W 025°40'0 0.0
2017-Nov-13 23:29N 37°44' W 025°40'0 0.0
2017-Nov-13 22:59N 37°44' W 025°40'0 0.0
2017-Nov-13 22:30N 37°44' W 025°40'0 0.0
2017-Nov-13 22:00N 37°44' W 025°40'27 1.3
2017-Nov-13 02:00N 37°41' W 025°06'713.9
2017-Nov-13 01:30N 37°42' W 024°58'714.4
2017-Nov-13 01:00N 37°42' W 024°48'714.4
2017-Nov-13 00:30N 37°43' W 024°39'714.3
2017-Nov-13 00:00N 37°43' W 024°30'714.7
2017-Nov-12 23:30N 37°44' W 024°21'715.0
2017-Nov-12 23:00N 37°45' W 024°12'815.1
2017-Nov-12 22:30N 37°45' W 024°02'1015.0
2017-Nov-12 21:52N 37°46' W 023°50'36414.2
2017-Nov-11 20:18N 38°13' W 016°09'514.8
2017-Nov-11 19:58N 38°13' W 016°03'914.9
2017-Nov-11 19:21N 38°14' W 015°51'614.8
2017-Nov-11 18:56N 38°15' W 015°43'714.6
2017-Nov-11 18:29N 38°15' W 015°35'21914.4
2017-Nov-11 03:17N 38°31' W 010°56'614.0
2017-Nov-11 02:52N 38°32' W 010°49'1614.1
2017-Nov-11 01:45N 38°33' W 010°29'313.5
2017-Nov-11 01:30N 38°33' W 010°24'1113.3
2017-Nov-11 00:42N 38°34' W 010°11'313.3
2017-Nov-11 00:31N 38°34' W 010°08'713.6
2017-Nov-11 00:01N 38°34' W 009°59'714.2
2017-Nov-10 23:31N 38°35' W 009°50'713.8
2017-Nov-10 23:01N 38°35' W 009°41'714.3
2017-Nov-10 22:30N 38°36' W 009°32'714.4
2017-Nov-10 22:00N 38°37' W 009°23'714.7
2017-Nov-10 21:30N 38°41' W 009°15'612.5
2017-Nov-10 21:00N 38°42' W 009°07'1 1.1
2017-Nov-10 19:53N 38°43' W 009°06'0 0.0
2017-Nov-10 19:24N 38°44' W 009°06'0 0.0
2017-Nov-10 19:00N 38°43' W 009°06'0 0.0
2017-Nov-10 16:43N 38°44' W 009°06'0 0.0
2017-Nov-10 16:08N 38°43' W 009°06'0 0.0
2017-Nov-10 15:11N 38°44' W 009°06'0 0.0
2017-Nov-10 14:00N 38°43' W 009°06'0 0.0
2017-Nov-10 13:19N 38°43' W 009°06'0 0.0
2017-Nov-10 12:43N 38°43' W 009°06'0 0.0
2017-Nov-10 12:13N 38°43' W 009°06'0 0.0
2017-Nov-10 11:50N 38°43' W 009°06'0 0.0
2017-Nov-10 11:20N 38°43' W 009°06'0 0.0
2017-Nov-10 10:56N 38°44' W 009°06'0 0.0
2017-Nov-10 10:24N 38°43' W 009°06'0 0.0
2017-Nov-10 09:57N 38°43' W 009°06'0 0.0
2017-Nov-10 09:21N 38°43' W 009°06'0 0.0
2017-Nov-10 08:52N 38°43' W 009°06'0 0.0
2017-Nov-10 08:28N 38°43' W 009°06'0 0.0
2017-Nov-10 08:00N 38°44' W 009°06'0 0.0
2017-Nov-10 07:30N 38°43' W 009°06'0 0.0
2017-Nov-10 06:58N 38°43' W 009°06'0 0.0
2017-Nov-10 06:28N 38°43' W 009°06'0 0.0
2017-Nov-10 05:58N 38°43' W 009°06'0 0.0
2017-Nov-10 05:26N 38°43' W 009°06'0 0.0
2017-Nov-10 04:59N 38°43' W 009°06'0 0.0
2017-Nov-10 04:29N 38°43' W 009°06'0 0.0
2017-Nov-10 04:00N 38°43' W 009°06'0 0.0
2017-Nov-10 03:27N 38°43' W 009°06'0 0.0
2017-Nov-10 03:00N 38°43' W 009°06'0 0.0
2017-Nov-10 02:28N 38°43' W 009°06'0 0.0
2017-Nov-10 01:58N 38°43' W 009°06'0 0.0
2017-Nov-10 01:28N 38°43' W 009°06'0 0.0
2017-Nov-10 00:59N 38°43' W 009°06'  
Track history (hours):
 
Tides and Currents Weather Stations Pressure Air Temp Water Temp Dewpoint Dewpoint Depression Visibility Wind Speed Wind Dir Waves Ship Positions

Corvo

Last reported at 2017-Nov-20 00:29 UTC. Time now 2017-Nov-22 03:31 UTC.
Position N 38°43' W 009°07'.

Length 119 m; draft 5.7 m.

Type: Cargo ship. MMSI: 204709000.

Date/timePositionNaut miles runAvg speedWind from/ knotsBaromVisibWave heightAir tempDewpointWater temp
2017-Nov-20 00:29N 38°43' W 009°07'0 0.2
2017-Nov-20 00:00N 38°43' W 009°06'5 9.9
2017-Nov-19 23:27N 38°41' W 009°13'511.0
2017-Nov-19 23:00N 38°40' W 009°19'815.7
2017-Nov-19 22:31N 38°35' W 009°27'816.4
2017-Nov-19 22:01N 38°34' W 009°38'816.6
2017-Nov-19 21:30N 38°34' W 009°48'816.5
2017-Nov-19 21:01N 38°34' W 009°59'816.7
2017-Nov-19 20:31N 38°33' W 010°09'816.6
2017-Nov-19 20:01N 38°32' W 010°20'816.8
2017-Nov-19 19:31N 38°32' W 010°31'816.7
2017-Nov-19 19:01N 38°31' W 010°41'816.0
2017-Nov-19 18:30N 38°31' W 010°52'815.3
2017-Nov-19 18:01N 38°31' W 011°01'4215.8
2017-Nov-19 15:21N 38°27' W 011°55'615.9
2017-Nov-19 14:59N 38°26' W 012°02'54715.9
2017-Nov-18 04:34N 37°47' W 023°36'115.4
2017-Nov-18 04:30N 37°47' W 023°37'816.1
2017-Nov-18 04:00N 37°46' W 023°47'816.5
2017-Nov-18 03:31N 37°46' W 023°58'816.2
2017-Nov-18 03:00N 37°45' W 024°08'816.0
2017-Nov-18 02:30N 37°45' W 024°18'816.1
2017-Nov-18 02:01N 37°44' W 024°28'816.3
2017-Nov-18 01:31N 37°44' W 024°38'816.3
2017-Nov-18 01:00N 37°44' W 024°49'816.0
2017-Nov-18 00:30N 37°43' W 024°59'816.3
2017-Nov-18 00:00N 37°42' W 025°09'816.6
2017-Nov-17 23:30N 37°41' W 025°20'816.3
2017-Nov-17 23:01N 37°41' W 025°30'816.1
2017-Nov-17 22:31N 37°44' W 025°39'1 1.1
2017-Nov-17 22:00N 37°44' W 025°40'0 0.0
2017-Nov-17 21:30N 37°44' W 025°40'0 0.0
2017-Nov-17 21:00N 37°44' W 025°40'0 0.0
2017-Nov-17 20:31N 37°44' W 025°40'0 0.0
2017-Nov-17 19:58N 37°44' W 025°40'0 0.0
2017-Nov-17 19:28N 37°44' W 025°40'0 0.0
2017-Nov-17 18:59N 37°44' W 025°40'0 0.0
2017-Nov-17 18:29N 37°44' W 025°40'0 0.0
2017-Nov-17 17:59N 37°44' W 025°40'0 0.0
2017-Nov-17 17:30N 37°44' W 025°40'0 0.0
2017-Nov-17 17:00N 37°44' W 025°40'0 0.0
2017-Nov-17 16:30N 37°44' W 025°40'0 0.0
2017-Nov-17 16:01N 37°44' W 025°40'0 0.0
2017-Nov-17 15:28N 37°44' W 025°40'0 0.0
2017-Nov-17 14:58N 37°44' W 025°40'0 0.0
2017-Nov-17 14:29N 37°44' W 025°40'0 0.0
2017-Nov-17 13:59N 37°44' W 025°40'0 0.0
2017-Nov-17 13:29N 37°44' W 025°40'0 0.0
2017-Nov-17 13:00N 37°44' W 025°40'0 0.0
2017-Nov-17 12:30N 37°44' W 025°40'0 0.0
2017-Nov-17 12:00N 37°44' W 025°40'0 0.0
2017-Nov-17 11:28N 37°44' W 025°40'0 0.0
2017-Nov-17 10:58N 37°44' W 025°40'0 0.0
2017-Nov-17 10:28N 37°44' W 025°40'0 0.9
2017-Nov-17 10:00N 37°44' W 025°39'3 6.6
2017-Nov-17 09:30N 37°42' W 025°43'816.0
2017-Nov-17 09:00N 37°46' W 025°52'816.0
2017-Nov-17 08:30N 37°50' W 026°01'815.8
2017-Nov-17 08:00N 37°53' W 026°10'816.3
2017-Nov-17 07:30N 37°56' W 026°19'816.3
2017-Nov-17 07:00N 37°59' W 026°29'816.1
2017-Nov-17 06:30N 38°03' W 026°38'815.8
2017-Nov-17 06:00N 38°06' W 026°47'816.0
2017-Nov-17 05:30N 38°10' W 026°56'816.1
2017-Nov-17 05:00N 38°13' W 027°05'816.5
2017-Nov-17 04:30N 38°17' W 027°15'816.4
2017-Nov-17 04:00N 38°20' W 027°24'816.6
2017-Nov-17 03:30N 38°24' W 027°34'817.0
2017-Nov-17 03:00N 38°27' W 027°44'816.9
2017-Nov-17 02:30N 38°31' W 027°54'917.1
2017-Nov-17 02:00N 38°35' W 028°03'816.3
2017-Nov-17 01:30N 38°39' W 028°12'1 2.5
2017-Nov-17 00:58N 38°41' W 028°12'0 0.0
2017-Nov-17 00:28N 38°41' W 028°12'0 0.0
2017-Nov-16 23:59N 38°41' W 028°12'0 0.0
2017-Nov-16 23:29N 38°41' W 028°12'0 0.0
2017-Nov-16 22:59N 38°41' W 028°12'0 0.0
2017-Nov-16 22:30N 38°41' W 028°12'0 0.0
2017-Nov-16 22:00N 38°41' W 028°12'0 0.0
2017-Nov-16 21:30N 38°41' W 028°12'0 0.0
2017-Nov-16 20:58N 38°41' W 028°12'0 0.0
2017-Nov-16 20:28N 38°41' W 028°12'0 0.0
2017-Nov-16 19:56N 38°41' W 028°12'0 0.0
2017-Nov-16 19:29N 38°41' W 028°12'0 0.0
2017-Nov-16 18:59N 38°41' W 028°12'0 0.0
2017-Nov-16 18:29N 38°41' W 028°12'0 0.0
2017-Nov-16 18:00N 38°41' W 028°12'0 0.0
2017-Nov-16 17:30N 38°41' W 028°12'0 0.0
2017-Nov-16 16:58N 38°41' W 028°12'0 0.0
2017-Nov-16 16:25N 38°41' W 028°12'0 0.0
2017-Nov-16 15:58N 38°41' W 028°12'0 0.0
2017-Nov-16 15:28N 38°41' W 028°12'0 0.0
2017-Nov-16 14:59N 38°41' W 028°12'0 0.0
2017-Nov-16 14:29N 38°41' W 028°12'0 0.0
2017-Nov-16 13:59N 38°41' W 028°12'0 0.0
2017-Nov-16 13:30N 38°41' W 028°12'0 0.0
2017-Nov-16 13:00N 38°41' W 028°12'1 2.3
2017-Nov-16 12:30N 38°40' W 028°12'510.6
2017-Nov-16 12:00N 38°36' W 028°07'815.7
2017-Nov-16 11:31N 38°33' W 027°58'815.5
2017-Nov-16 11:00N 38°30' W 027°49'816.0
2017-Nov-16 10:30N 38°31' W 027°39'816.3
2017-Nov-16 10:00N 38°32' W 027°28'816.5
2017-Nov-16 09:30N 38°33' W 027°18'816.5
2017-Nov-16 09:00N 38°35' W 027°07'914.8
2017-Nov-16 08:25N 38°42' W 027°01'2 0.1
2017-Nov-15 16:54N 38°43' W 027°03'0 0.0
2017-Nov-15 16:30N 38°43' W 027°03'0 0.0
2017-Nov-15 15:01N 38°43' W 027°03'0 0.0
2017-Nov-15 14:53N 38°43' W 027°03'0 0.0
2017-Nov-15 14:26N 38°43' W 027°03'0 0.0
2017-Nov-15 11:46N 38°43' W 027°03'0 0.0
2017-Nov-15 10:29N 38°43' W 027°03'0 0.0
2017-Nov-15 09:38N 38°43' W 027°03'0 0.0
2017-Nov-14 18:57N 38°43' W 027°03'0 0.0
2017-Nov-14 18:30N 38°43' W 027°03'0 0.0
2017-Nov-14 17:58N 38°43' W 027°03'0 0.0
2017-Nov-14 17:28N 38°43' W 027°03'0 0.0
2017-Nov-14 16:58N 38°43' W 027°03'0 0.0
2017-Nov-14 16:29N 38°43' W 027°03'0 0.0
2017-Nov-14 15:59N 38°43' W 027°03'0 0.0
2017-Nov-14 15:29N 38°43' W 027°03'0 0.0
2017-Nov-14 15:00N 38°43' W 027°03'0 0.0
2017-Nov-14 14:30N 38°43' W 027°03'0 0.0
2017-Nov-14 08:31N 38°43' W 027°03'0 0.1
2017-Nov-14 08:28N 38°43' W 027°03'1 2.5
2017-Nov-14 07:59N 38°44' W 027°02'510.2
2017-Nov-14 07:30N 38°40' W 026°58'816.3
2017-Nov-14 07:00N 38°34' W 026°50'816.2
2017-Nov-14 06:31N 38°29' W 026°43'815.4
2017-Nov-14 06:00N 38°23' W 026°36'4 7.3
2017-Nov-14 05:30N 38°20' W 026°33'4 7.4
2017-Nov-14 05:00N 38°23' W 026°37'714.6
2017-Nov-14 04:30N 38°18' W 026°30'715.0
2017-Nov-14 04:00N 38°12' W 026°24'815.1
2017-Nov-14 03:31N 38°07' W 026°17'815.3
2017-Nov-14 03:00N 38°02' W 026°10'815.2
2017-Nov-14 02:30N 37°56' W 026°03'815.1
2017-Nov-14 02:00N 37°51' W 025°56'815.3
2017-Nov-14 01:30N 37°46' W 025°49'714.8
2017-Nov-14 01:00N 37°42' W 025°41'3 4.9
2017-Nov-14 00:28N 37°44' W 025°40'0 0.0
2017-Nov-13 23:59N 37°44' W 025°40'0 0.0
2017-Nov-13 23:29N 37°44' W 025°40'0 0.0
2017-Nov-13 22:59N 37°44' W 025°40'0 0.0
2017-Nov-13 22:30N 37°44' W 025°40'0 0.0
2017-Nov-13 22:00N 37°44' W 025°40'27 1.3
2017-Nov-13 02:00N 37°41' W 025°06'713.9
2017-Nov-13 01:30N 37°42' W 024°58'714.4
2017-Nov-13 01:00N 37°42' W 024°48'714.4
2017-Nov-13 00:30N 37°43' W 024°39'714.3
2017-Nov-13 00:00N 37°43' W 024°30'714.7
2017-Nov-12 23:30N 37°44' W 024°21'715.0
2017-Nov-12 23:00N 37°45' W 024°12'815.1
2017-Nov-12 22:30N 37°45' W 024°02'1015.0
2017-Nov-12 21:52N 37°46' W 023°50'36414.2
2017-Nov-11 20:18N 38°13' W 016°09'514.8
2017-Nov-11 19:58N 38°13' W 016°03'914.9
2017-Nov-11 19:21N 38°14' W 015°51'614.8
2017-Nov-11 18:56N 38°15' W 015°43'714.6
2017-Nov-11 18:29N 38°15' W 015°35'21914.4
2017-Nov-11 03:17N 38°31' W 010°56'614.0
2017-Nov-11 02:52N 38°32' W 010°49'1614.1
2017-Nov-11 01:45N 38°33' W 010°29'313.5
2017-Nov-11 01:30N 38°33' W 010°24'1113.3
2017-Nov-11 00:42N 38°34' W 010°11'313.3
2017-Nov-11 00:31N 38°34' W 010°08'713.6
2017-Nov-11 00:01N 38°34' W 009°59'714.2
2017-Nov-10 23:31N 38°35' W 009°50'713.8
2017-Nov-10 23:01N 38°35' W 009°41'714.3
2017-Nov-10 22:30N 38°36' W 009°32'714.4
2017-Nov-10 22:00N 38°37' W 009°23'714.7
2017-Nov-10 21:30N 38°41' W 009°15'612.5
2017-Nov-10 21:00N 38°42' W 009°07'1 1.1
2017-Nov-10 19:53N 38°43' W 009°06'0 0.0
2017-Nov-10 19:24N 38°44' W 009°06'0 0.0
2017-Nov-10 19:00N 38°43' W 009°06'0 0.0
2017-Nov-10 16:43N 38°44' W 009°06'0 0.0
2017-Nov-10 16:08N 38°43' W 009°06'0 0.0
2017-Nov-10 15:11N 38°44' W 009°06'0 0.0
2017-Nov-10 14:00N 38°43' W 009°06'0 0.0
2017-Nov-10 13:19N 38°43' W 009°06'0 0.0
2017-Nov-10 12:43N 38°43' W 009°06'0 0.0
2017-Nov-10 12:13N 38°43' W 009°06'0 0.0
2017-Nov-10 11:50N 38°43' W 009°06'0 0.0
2017-Nov-10 11:20N 38°43' W 009°06'0 0.0
2017-Nov-10 10:56N 38°44' W 009°06'0 0.0
2017-Nov-10 10:24N 38°43' W 009°06'0 0.0
2017-Nov-10 09:57N 38°43' W 009°06'0 0.0
2017-Nov-10 09:21N 38°43' W 009°06'0 0.0
2017-Nov-10 08:52N 38°43' W 009°06'0 0.0
2017-Nov-10 08:28N 38°43' W 009°06'0 0.0
2017-Nov-10 08:00N 38°44' W 009°06'0 0.0
2017-Nov-10 07:30N 38°43' W 009°06'0 0.0
2017-Nov-10 06:58N 38°43' W 009°06'0 0.0
2017-Nov-10 06:28N 38°43' W 009°06'0 0.0
2017-Nov-10 05:58N 38°43' W 009°06'0 0.0
2017-Nov-10 05:26N 38°43' W 009°06'0 0.0
2017-Nov-10 04:59N 38°43' W 009°06'0 0.0
2017-Nov-10 04:29N 38°43' W 009°06'0 0.0
2017-Nov-10 04:00N 38°43' W 009°06'0 0.0
2017-Nov-10 03:27N 38°43' W 009°06'0 0.0
2017-Nov-10 03:00N 38°43' W 009°06'0 0.0
2017-Nov-10 02:28N 38°43' W 009°06'0 0.0
2017-Nov-10 01:58N 38°43' W 009°06'0 0.0
2017-Nov-10 01:28N 38°43' W 009°06'0 0.0
2017-Nov-10 00:59N 38°43' W 009°06'  

Dump ship's entire track history